createdAt,value
2018-12-10T00:02:18.292Z,70.20
2018-12-10T00:04:46.604Z,70.70
2018-12-10T00:07:15.250Z,69.50
2018-12-10T00:09:43.803Z,70.20
2018-12-10T00:12:12.159Z,70.00
2018-12-10T00:14:49.445Z,70.10
2018-12-10T00:17:17.792Z,72.10
2018-12-10T00:22:39.467Z,71.10
2018-12-10T00:25:08.066Z,69.70
2018-12-10T00:27:37.222Z,70.70
2018-12-10T00:30:06.878Z,71.30
2018-12-10T00:32:35.227Z,69.30
2018-12-10T00:35:04.330Z,68.30
2018-12-10T00:37:32.596Z,70.80
2018-12-10T00:40:01.222Z,71.60
2018-12-10T00:42:29.552Z,71.40
2018-12-10T00:44:57.905Z,70.60
2018-12-10T00:47:26.224Z,71.40
2018-12-10T00:49:54.598Z,70.40
2018-12-10T00:52:23.058Z,72.30
2018-12-10T00:54:51.712Z,70.70
2018-12-10T00:57:20.942Z,71.40
2018-12-10T00:59:49.270Z,72.00
2018-12-10T01:02:17.711Z,73.10
2018-12-10T01:04:46.307Z,74.30
2018-12-10T01:07:14.754Z,73.30
2018-12-10T01:09:43.410Z,71.50
2018-12-10T01:12:11.719Z,70.10
2018-12-10T01:14:40.103Z,69.80
2018-12-10T01:17:09.659Z,71.10
2018-12-10T01:19:37.978Z,70.10
2018-12-10T01:22:07.303Z,69.70
2018-12-10T01:24:35.682Z,70.00
2018-12-10T01:27:04.112Z,70.40
2018-12-10T01:29:32.522Z,69.30
2018-12-10T01:32:00.854Z,68.70
2018-12-10T01:34:29.281Z,69.20
2018-12-10T01:36:57.672Z,71.00
2018-12-10T01:39:26.498Z,70.60
2018-12-10T01:41:54.815Z,69.20
2018-12-10T01:44:23.615Z,70.20
2018-12-10T01:46:51.941Z,69.30
2018-12-10T01:49:20.263Z,70.00
2018-12-10T01:51:48.689Z,69.90
2018-12-10T01:54:17.118Z,69.60
2018-12-10T01:56:46.640Z,69.80
2018-12-10T01:59:14.953Z,71.30
2018-12-10T02:01:43.857Z,70.00
2018-12-10T02:04:12.274Z,71.50
2018-12-10T02:06:40.588Z,71.40
2018-12-10T02:09:09.201Z,72.00
2018-12-10T02:11:37.561Z,70.60
2018-12-10T02:14:06.015Z,70.90
2018-12-10T02:16:34.347Z,70.10
2018-12-10T02:19:02.693Z,71.40
2018-12-10T02:21:31.070Z,70.70
2018-12-10T02:23:59.434Z,71.00
2018-12-10T02:26:28.120Z,71.60
2018-12-10T02:29:02.103Z,70.00
2018-12-10T02:31:31.535Z,68.90
2018-12-10T02:33:59.826Z,69.40
2018-12-10T02:36:28.354Z,70.50
2018-12-10T02:38:56.734Z,69.80
2018-12-10T02:41:25.066Z,69.30
2018-12-10T02:43:53.386Z,70.40
2018-12-10T02:46:21.799Z,70.30
2018-12-10T02:48:50.149Z,71.30
2018-12-10T02:51:18.498Z,71.50
2018-12-10T02:53:46.807Z,71.70
2018-12-10T02:56:15.179Z,71.90
2018-12-10T02:58:43.543Z,72.70
2018-12-10T03:01:12.642Z,72.90
2018-12-10T03:03:40.897Z,73.90
2018-12-10T03:06:09.387Z,73.10
2018-12-10T03:08:37.858Z,74.60
2018-12-10T03:11:06.215Z,74.20
2018-12-10T03:13:36.474Z,73.80
2018-12-10T03:16:05.171Z,72.40
2018-12-10T03:18:33.502Z,71.90
2018-12-10T03:21:01.936Z,73.30
2018-12-10T03:23:30.220Z,72.70
2018-12-10T03:25:58.716Z,73.80
2018-12-10T03:28:27.236Z,73.60
2018-12-10T03:30:55.522Z,74.20
2018-12-10T03:33:23.840Z,74.40
2018-12-10T03:35:52.285Z,73.90
2018-12-10T03:38:20.559Z,74.50
2018-12-10T03:41:07.882Z,74.10
2018-12-10T03:43:43.974Z,75.20
2018-12-10T04:09:05.554Z,75.50
2018-12-10T04:11:39.860Z,73.30
2018-12-10T04:14:27.487Z,73.00
2018-12-10T04:19:52.610Z,74.30
2018-12-10T04:22:32.218Z,75.10
2018-12-10T04:25:04.847Z,74.30
2018-12-10T04:27:46.740Z,74.50
2018-12-10T04:30:28.326Z,75.20
2018-12-10T04:33:08.737Z,75.40
2018-12-10T04:35:39.952Z,76.20
2018-12-10T04:41:03.518Z,76.00
2018-12-10T04:43:31.921Z,75.70
2018-12-10T04:46:00.371Z,75.70
2018-12-10T04:48:29.040Z,74.70
2018-12-10T04:50:57.354Z,74.60
2018-12-10T04:53:25.674Z,75.30
2018-12-10T04:55:54.010Z,74.80
2018-12-10T04:58:22.368Z,75.10
2018-12-10T05:00:50.762Z,76.20
2018-12-10T05:03:22.134Z,76.40
2018-12-10T05:05:50.486Z,75.70
2018-12-10T05:08:18.825Z,76.10
2018-12-10T05:10:47.234Z,77.10
2018-12-10T05:13:15.720Z,75.80
2018-12-10T05:15:44.770Z,76.60
2018-12-10T05:18:13.304Z,77.20
2018-12-10T05:20:41.621Z,77.20
2018-12-10T05:23:09.941Z,76.90
2018-12-10T05:25:38.386Z,75.80
2018-12-10T05:28:06.747Z,75.20
2018-12-10T05:30:35.144Z,75.60
2018-12-10T05:33:03.754Z,75.50
2018-12-10T05:35:32.053Z,74.80
2018-12-10T05:38:00.361Z,74.10
2018-12-10T05:40:28.734Z,73.30
2018-12-10T05:42:57.110Z,73.10
2018-12-10T05:45:25.518Z,72.50
2018-12-10T05:47:53.898Z,73.00
2018-12-10T05:50:23.661Z,73.30
2018-12-10T05:52:52.390Z,73.80
2018-12-10T05:55:21.011Z,73.20
2018-12-10T05:57:49.455Z,74.00
2018-12-10T06:00:18.027Z,74.90
2018-12-10T06:02:46.492Z,75.00
2018-12-10T06:05:15.058Z,75.80
2018-12-10T06:07:43.662Z,75.40
2018-12-10T06:10:12.260Z,74.70
2018-12-10T06:12:40.963Z,74.10
2018-12-10T06:15:12.802Z,75.00
2018-12-10T06:17:41.269Z,74.40
2018-12-10T06:20:09.719Z,74.90
2018-12-10T06:22:38.451Z,73.00
2018-12-10T06:25:08.086Z,72.40
2018-12-10T06:27:36.633Z,73.20
2018-12-10T06:30:05.924Z,73.30
2018-12-10T06:32:34.480Z,74.20
2018-12-10T06:35:03.106Z,74.50
2018-12-10T06:37:37.523Z,74.40
2018-12-10T06:40:02.261Z,74.50
2018-12-10T06:42:30.866Z,75.80
2018-12-10T06:44:59.425Z,75.90
2018-12-10T06:47:28.797Z,76.30
2018-12-10T06:50:19.160Z,77.30
2018-12-10T06:52:59.089Z,76.80
2018-12-10T06:55:27.606Z,77.60
2018-12-10T06:58:09.297Z,77.00
2018-12-10T07:05:03.417Z,76.80
2018-12-10T07:07:32.871Z,77.40
2018-12-10T07:10:15.667Z,77.00
2018-12-10T07:12:45.139Z,77.80
2018-12-10T07:15:13.928Z,77.60
2018-12-10T07:17:43.481Z,77.90
2018-12-10T07:20:11.958Z,77.40
2018-12-10T07:22:40.437Z,76.60
2018-12-10T07:25:08.935Z,75.50
2018-12-10T07:27:37.476Z,75.30
2018-12-10T07:30:07.055Z,75.50
2018-12-10T07:32:35.598Z,75.40
2018-12-10T07:35:04.230Z,75.70
2018-12-10T07:37:32.807Z,76.20
2018-12-10T07:40:01.574Z,76.20
2018-12-10T07:42:31.136Z,75.50
2018-12-10T07:44:59.619Z,75.10
2018-12-10T07:47:28.203Z,74.70
2018-12-10T07:53:06.562Z,76.80
2018-12-10T07:55:35.115Z,75.30
2018-12-10T07:58:05.646Z,75.70
2018-12-10T08:00:34.203Z,75.80
2018-12-10T08:03:12.603Z,75.00
2018-12-10T08:05:41.601Z,75.30
2018-12-10T08:08:10.268Z,75.80
2018-12-10T08:10:38.813Z,76.20
2018-12-10T08:13:07.260Z,76.00
2018-12-10T08:15:35.732Z,75.60
2018-12-10T08:18:05.336Z,75.20
2018-12-10T08:20:33.825Z,74.30
2018-12-10T08:23:02.387Z,73.70
2018-12-10T08:25:31.224Z,73.00
2018-12-10T08:27:59.659Z,72.60
2018-12-10T08:30:28.300Z,71.90
2018-12-10T08:32:56.942Z,72.50
2018-12-10T08:35:25.567Z,73.80
2018-12-10T08:37:54.025Z,72.40
2018-12-10T08:40:22.817Z,70.70
2018-12-10T08:42:51.514Z,71.50
2018-12-10T08:45:19.958Z,71.10
2018-12-10T08:47:48.286Z,71.90
2018-12-10T08:50:16.669Z,72.70
2018-12-10T08:52:45.013Z,72.50
2018-12-10T08:55:13.396Z,72.50
2018-12-10T08:57:41.710Z,71.20
2018-12-10T09:00:10.418Z,71.30
2018-12-10T09:02:38.785Z,70.60
2018-12-10T09:18:54.788Z,70.90
2018-12-10T09:21:23.609Z,70.60
2018-12-10T09:23:52.281Z,69.50
2018-12-10T09:26:20.737Z,71.10
2018-12-10T09:28:49.028Z,70.70
2018-12-10T09:31:18.311Z,70.80
2018-12-10T09:33:46.754Z,69.80
2018-12-10T09:36:15.226Z,68.10
2018-12-10T09:38:43.653Z,67.50
2018-12-10T09:41:12.062Z,68.00
2018-12-10T09:43:39.917Z,67.90
2018-12-10T09:49:11.109Z,67.70
2018-12-10T09:51:40.424Z,67.70
2018-12-10T09:54:10.915Z,65.00
2018-12-10T09:56:40.347Z,66.90
2018-12-10T09:59:29.445Z,65.00
2018-12-10T10:01:58.532Z,67.10
2018-12-10T10:04:32.493Z,66.00
2018-12-10T10:07:02.110Z,64.80
2018-12-10T10:09:32.775Z,65.70
2018-12-10T10:12:02.077Z,66.70
2018-12-10T10:14:31.280Z,66.90
2018-12-10T10:17:05.478Z,66.70
2018-12-10T10:19:40.714Z,67.30
2018-12-10T10:22:10.353Z,67.50
2018-12-10T10:24:39.144Z,68.30
2018-12-10T10:27:08.188Z,70.40
2018-12-10T10:29:37.762Z,69.90
2018-12-10T10:32:08.125Z,69.70
2018-12-10T10:34:37.415Z,72.90
2018-12-10T10:37:06.304Z,73.00
2018-12-10T10:42:46.049Z,73.20
2018-12-10T10:45:15.091Z,73.80
2018-12-10T10:47:43.649Z,74.00
2018-12-10T10:50:12.235Z,73.60
2018-12-10T10:53:08.013Z,74.00
2018-12-10T10:55:36.509Z,74.30
2018-12-10T10:58:04.858Z,74.30
2018-12-10T11:01:38.197Z,74.10
2018-12-10T11:04:06.616Z,74.10
2018-12-10T11:06:35.093Z,73.00
2018-12-10T11:09:06.355Z,72.40
2018-12-10T11:11:35.739Z,70.10
2018-12-10T11:14:04.358Z,70.50
2018-12-10T11:16:34.160Z,70.40
2018-12-10T11:19:02.510Z,71.30
2018-12-10T11:21:31.066Z,71.40
2018-12-10T11:23:59.430Z,71.80
2018-12-10T11:26:28.009Z,74.20
2018-12-10T11:28:57.130Z,73.20
2018-12-10T11:31:27.166Z,71.90
2018-12-10T11:33:55.978Z,70.80
2018-12-10T11:36:24.867Z,69.60
2018-12-10T11:38:57.933Z,69.70
2018-12-10T11:41:23.860Z,70.00
2018-12-10T11:43:52.245Z,70.10
2018-12-10T11:46:21.354Z,70.00
2018-12-10T11:48:50.236Z,68.80
2018-12-10T11:51:24.020Z,67.20
2018-12-10T11:53:59.558Z,68.40
2018-12-10T11:56:28.121Z,69.60
2018-12-10T11:58:56.521Z,71.10
2018-12-10T12:01:24.969Z,70.90
2018-12-10T12:03:53.554Z,72.40
2018-12-10T12:06:30.015Z,70.70
2018-12-10T12:08:59.709Z,69.40
2018-12-10T12:11:28.962Z,69.40
2018-12-10T12:13:57.350Z,70.00
2018-12-10T12:16:26.839Z,70.10
2018-12-10T12:18:55.318Z,71.30
2018-12-10T12:21:23.956Z,69.50
2018-12-10T12:23:52.378Z,69.10
2018-12-10T12:26:20.847Z,70.40
2018-12-10T12:28:49.667Z,70.00
2018-12-10T12:31:18.114Z,71.50
2018-12-10T12:33:46.682Z,69.20
2018-12-10T12:36:15.133Z,70.10
2018-12-10T12:38:43.575Z,68.50
2018-12-10T12:41:12.513Z,70.30
2018-12-10T12:43:40.876Z,70.00
2018-12-10T12:46:09.506Z,69.70
2018-12-10T12:48:38.085Z,69.70
2018-12-10T12:51:06.782Z,71.10
2018-12-10T12:53:35.405Z,69.00
2018-12-10T12:56:04.057Z,67.80
2018-12-10T12:58:32.324Z,64.20
2018-12-10T13:01:00.803Z,65.90
2018-12-10T13:03:29.187Z,65.10
2018-12-10T13:05:57.746Z,67.80
2018-12-10T13:08:30.940Z,64.90
2018-12-10T13:10:56.718Z,67.30
2018-12-10T13:13:25.203Z,67.60
2018-12-10T13:15:53.920Z,68.00
2018-12-10T13:18:22.347Z,69.30
2018-12-10T13:20:50.848Z,68.30
2018-12-10T13:23:20.095Z,68.10
2018-12-10T13:25:48.439Z,66.90
2018-12-10T13:28:16.837Z,66.70
2018-12-10T13:30:45.476Z,65.80
2018-12-10T13:33:14.044Z,68.30
2018-12-10T13:35:42.359Z,68.10
2018-12-10T13:38:12.550Z,67.50
2018-12-10T13:40:41.189Z,68.00
2018-12-10T13:43:10.243Z,68.50
2018-12-10T13:45:38.914Z,66.40
2018-12-10T13:48:07.645Z,67.80
2018-12-10T13:50:36.467Z,66.70
2018-12-10T13:53:04.882Z,66.30
2018-12-10T13:55:33.174Z,69.70
2018-12-10T13:58:02.641Z,67.10
2018-12-10T14:00:31.141Z,69.50
2018-12-10T14:03:04.068Z,69.40
2018-12-10T14:05:32.474Z,65.80
2018-12-10T14:08:00.864Z,68.30
2018-12-10T14:10:29.482Z,68.90
2018-12-10T14:12:57.779Z,67.90
2018-12-10T14:15:26.311Z,66.70
2018-12-10T14:17:54.610Z,65.50
2018-12-10T14:20:22.923Z,64.50
2018-12-10T14:22:51.214Z,65.80
2018-12-10T14:25:26.946Z,65.00
2018-12-10T14:27:55.304Z,66.90
2018-12-10T14:30:24.026Z,67.80
2018-12-10T14:32:52.515Z,65.70
2018-12-10T14:35:20.929Z,68.00
2018-12-10T14:37:49.247Z,66.70
2018-12-10T14:40:17.897Z,67.40
2018-12-10T14:42:54.374Z,64.70
2018-12-10T14:45:22.860Z,67.50
2018-12-10T14:47:53.728Z,65.30
2018-12-10T14:50:22.026Z,67.20
2018-12-10T14:52:50.442Z,65.50
2018-12-10T14:55:19.085Z,65.60
2018-12-10T14:57:47.821Z,65.20
2018-12-10T15:00:16.879Z,67.80
2018-12-10T15:02:45.318Z,66.90
2018-12-10T15:05:14.297Z,66.60
2018-12-10T15:07:42.876Z,67.60
2018-12-10T15:10:12.437Z,67.90
2018-12-10T15:12:40.921Z,67.10
2018-12-10T15:15:11.738Z,65.50
2018-12-10T15:17:40.089Z,64.40
2018-12-10T15:20:11.723Z,64.00
2018-12-10T15:22:40.092Z,61.90
2018-12-10T15:25:09.168Z,62.70
2018-12-10T15:27:37.852Z,62.10
2018-12-10T15:30:09.295Z,60.00
2018-12-10T15:32:37.877Z,59.60
2018-12-10T15:35:06.767Z,61.30
2018-12-10T15:37:34.687Z,60.20
2018-12-10T15:40:03.572Z,61.90
2018-12-10T15:42:32.061Z,61.70
2018-12-10T15:45:00.406Z,59.20
2018-12-10T15:47:28.371Z,59.60
2018-12-10T15:49:57.102Z,59.90
2018-12-10T15:52:25.463Z,58.70
2018-12-10T15:54:53.765Z,59.70
2018-12-10T15:57:22.414Z,58.50
2018-12-10T15:59:51.583Z,57.60
2018-12-10T16:02:19.938Z,58.80
2018-12-10T16:04:49.226Z,59.60
2018-12-10T16:07:17.755Z,60.30
2018-12-10T16:09:46.454Z,60.90
2018-12-10T16:12:14.753Z,61.50
2018-12-10T16:14:43.298Z,61.70
2018-12-10T16:17:11.815Z,62.20
2018-12-10T16:19:40.641Z,61.00
2018-12-10T16:22:09.193Z,60.60
2018-12-10T16:24:37.486Z,60.70
2018-12-10T16:27:06.414Z,64.00
2018-12-10T16:29:34.731Z,62.30
2018-12-10T16:32:03.049Z,60.30
2018-12-10T16:34:31.470Z,62.80
2018-12-10T16:36:59.868Z,62.20
2018-12-10T16:39:28.357Z,60.00
2018-12-10T16:41:56.975Z,62.00
2018-12-10T16:44:25.270Z,63.50
2018-12-10T16:46:53.635Z,61.30
2018-12-10T16:49:21.919Z,62.80
2018-12-10T16:51:50.619Z,62.40
2018-12-10T16:54:22.738Z,64.30
2018-12-10T16:56:53.275Z,63.90
2018-12-10T16:59:22.015Z,63.60
2018-12-10T17:08:02.669Z,63.70
2018-12-10T17:10:31.123Z,65.30
2018-12-10T17:13:00.021Z,66.60
2018-12-10T17:15:32.832Z,66.50
2018-12-10T17:18:01.426Z,65.10
2018-12-10T17:20:29.910Z,66.20
2018-12-10T17:22:58.431Z,66.20
2018-12-10T17:25:26.798Z,66.50
2018-12-10T17:27:55.197Z,67.80
2018-12-10T17:30:23.693Z,66.90
2018-12-10T17:32:51.992Z,68.20
2018-12-10T17:35:20.655Z,67.10
2018-12-10T17:37:49.001Z,65.70
2018-12-10T17:40:17.367Z,66.10
2018-12-10T17:42:46.118Z,66.20
2018-12-10T17:45:14.536Z,66.10
2018-12-10T17:47:45.623Z,65.40
2018-12-10T17:50:16.648Z,64.60
2018-12-10T17:52:45.124Z,64.60
2018-12-10T17:55:13.665Z,64.50
2018-12-10T17:57:42.022Z,64.20
2018-12-10T18:00:11.576Z,66.80
2018-12-10T18:02:40.230Z,64.40
2018-12-10T18:05:09.122Z,64.00
2018-12-10T18:07:37.706Z,64.00
2018-12-10T18:10:06.847Z,64.10
2018-12-10T18:12:35.396Z,66.10
2018-12-10T18:15:04.637Z,62.50
2018-12-10T18:17:32.918Z,64.00
2018-12-10T18:20:01.343Z,65.40
2018-12-10T18:22:29.816Z,62.60
2018-12-10T18:24:58.090Z,65.10
2018-12-10T18:27:26.459Z,63.70
2018-12-10T18:29:54.763Z,63.20
2018-12-10T18:32:23.126Z,64.40
2018-12-10T18:34:51.512Z,63.70
2018-12-10T18:37:20.058Z,63.10
2018-12-10T18:39:48.343Z,64.70
2018-12-10T18:42:17.143Z,65.00
2018-12-10T18:44:45.635Z,66.30
2018-12-10T18:47:14.017Z,65.60
2018-12-10T18:49:42.619Z,67.00
2018-12-10T18:52:11.046Z,66.60
2018-12-10T18:54:39.723Z,66.60
2018-12-10T18:57:08.269Z,67.40
2018-12-10T18:59:36.813Z,66.60
2018-12-10T19:02:05.385Z,67.20
2018-12-10T19:04:34.220Z,67.70
2018-12-10T19:07:02.517Z,66.90
2018-12-10T19:09:31.005Z,67.70
2018-12-10T19:11:59.527Z,68.60
2018-12-10T19:14:28.115Z,67.30
2018-12-10T19:16:56.621Z,68.60
2018-12-10T19:19:25.421Z,67.50
2018-12-10T19:21:53.738Z,68.20
2018-12-10T19:24:22.350Z,68.70
2018-12-10T19:26:51.430Z,69.20
2018-12-10T19:29:19.788Z,69.70
2018-12-10T19:31:49.613Z,69.50
2018-12-10T19:34:17.938Z,69.90
2018-12-10T19:36:46.313Z,68.50
2018-12-10T19:39:14.601Z,67.30
2018-12-10T19:41:43.007Z,67.60
2018-12-10T19:44:13.126Z,66.20
2018-12-10T19:46:41.672Z,68.50
2018-12-10T19:49:10.014Z,68.60
2018-12-10T19:51:38.625Z,66.10
2018-12-10T19:54:07.184Z,66.20
2018-12-10T19:56:35.710Z,67.90
2018-12-10T19:59:04.492Z,68.00
2018-12-10T20:01:32.795Z,67.50
2018-12-10T20:04:01.149Z,66.00
2018-12-10T20:06:32.790Z,66.10
2018-12-10T20:09:01.323Z,65.50
2018-12-10T20:11:29.713Z,64.10
2018-12-10T20:13:58.822Z,65.60
2018-12-10T20:16:27.424Z,65.40
2018-12-10T20:18:56.090Z,64.40
2018-12-10T20:21:24.427Z,62.70
2018-12-10T20:23:52.846Z,64.90
2018-12-10T20:26:21.487Z,63.70
2018-12-10T20:28:50.668Z,65.70
2018-12-10T20:31:19.339Z,64.50
2018-12-10T20:33:47.934Z,64.40
2018-12-10T20:36:16.263Z,64.00
2018-12-10T20:38:44.702Z,64.30
2018-12-10T20:41:13.047Z,64.60
2018-12-10T20:43:41.504Z,64.80
2018-12-10T20:46:10.164Z,61.80
2018-12-10T20:48:38.705Z,64.20
2018-12-10T20:51:07.138Z,62.40
2018-12-10T20:53:37.301Z,65.10
2018-12-10T20:56:06.997Z,64.80
2018-12-10T20:58:35.794Z,65.50
2018-12-10T21:01:04.246Z,64.80
2018-12-10T21:03:32.673Z,61.40
2018-12-10T21:06:06.426Z,64.60
2018-12-10T21:08:34.989Z,65.40
2018-12-10T21:11:03.532Z,66.90
2018-12-10T21:13:31.969Z,63.70
2018-12-10T21:16:00.348Z,66.40
2018-12-10T21:18:28.884Z,66.70
2018-12-10T21:20:57.630Z,65.00
2018-12-10T21:23:25.954Z,65.40
2018-12-10T21:25:55.518Z,67.20
2018-12-10T21:28:24.033Z,63.90
2018-12-10T21:30:52.769Z,65.40
2018-12-10T21:33:21.861Z,62.50
2018-12-10T21:35:50.375Z,65.60
2018-12-10T21:38:19.013Z,62.30
2018-12-10T21:40:47.543Z,61.10
2018-12-10T21:43:15.993Z,64.00
2018-12-10T21:45:44.467Z,63.30
2018-12-10T21:48:13.018Z,63.90
2018-12-10T21:50:41.443Z,63.60
2018-12-10T21:53:09.796Z,64.00
2018-12-10T21:55:38.159Z,62.90
2018-12-10T21:58:11.128Z,65.80
2018-12-10T22:07:38.580Z,64.10
2018-12-10T22:10:07.522Z,66.00
2018-12-10T22:12:35.895Z,64.50
2018-12-10T22:15:05.106Z,66.80
2018-12-10T22:17:33.613Z,66.20
2018-12-10T22:20:01.981Z,65.10
2018-12-10T22:22:30.359Z,63.70
2018-12-10T22:24:58.794Z,64.50
2018-12-10T22:27:27.113Z,63.70
2018-12-10T22:29:55.583Z,65.40
2018-12-10T22:32:24.255Z,64.40
2018-12-10T22:34:52.551Z,64.30
2018-12-10T22:37:20.873Z,64.80
2018-12-10T22:39:49.446Z,64.40
2018-12-10T22:42:17.748Z,63.80
2018-12-10T22:44:46.165Z,65.60
2018-12-10T22:47:14.526Z,64.70
2018-12-10T22:49:42.916Z,65.10
2018-12-10T22:52:12.365Z,65.20
2018-12-10T22:54:40.631Z,64.50
2018-12-10T22:57:09.082Z,65.70
2018-12-10T22:59:37.533Z,65.30
2018-12-10T23:02:06.234Z,66.90
2018-12-10T23:04:34.614Z,66.10
2018-12-10T23:07:02.927Z,65.80
2018-12-10T23:09:31.306Z,66.10
2018-12-10T23:12:01.750Z,68.30
2018-12-10T23:14:30.724Z,67.60
2018-12-10T23:16:59.216Z,67.90
2018-12-10T23:19:27.791Z,67.20
2018-12-10T23:21:56.121Z,67.20
2018-12-10T23:29:22.481Z,69.10
2018-12-10T23:31:53.206Z,69.20
2018-12-10T23:34:24.003Z,68.50
2018-12-10T23:36:57.414Z,68.70
2018-12-10T23:39:26.213Z,69.30
2018-12-10T23:42:16.933Z,68.20
